Terminal Aerodrome Forecast
Issued by NWS Wichita, KS

Home | Current Version | Previous Version | Text Only | Print | Product List | Glossary Off
Versions: 1 2 3 4 5 6 7 8 9 10 11 12 13 14 15 16 17 18 19 20 21 22 23 24 25

000
FTUS43 KICT 281131
TAFICT
TAF
KICT 281131Z 2812/2912 13007KT P6SM SCT060 OVC100
     FM281400 17008KT P6SM VCSH SCT025 OVC080
     FM281800 18012KT P6SM SCT050
     FM290300 16010KT P6SM BKN025
     FM290600 15008KT P6SM VCTS SCT025CB OVC080=

USA.gov is the U.S. government's official web portal to all federal, state and local government web resources and services.